This is the latest recevied weather packets stored in our database for station/object F8BJE-13. If no packets are shown the sender has not sent any weather packets the latest 1 day(s).
| Time | Temp. | Humidity | Pressure | Rain* | Wind** | Luminosity | Snow |
|---|---|---|---|---|---|---|---|
| 1777984056 | 16.11° C | 69% | 1008.2 hPa | 0 mm | 0 m/s | - | - |
| 1777982257 | 14.44° C | 80% | 1008.4 hPa | 0 mm | 0.89 m/s, 24° | - | - |
| 1777980455 | 14.44° C | 79% | 1008.6 hPa | 0 mm | 0 m/s | - | - |
| 1777978656 | 13.33° C | 81% | 1009 hPa | 0 mm | 1.34 m/s, 265° | - | - |
| 1777976855 | 13.33° C | 81% | 1009 hPa | 0 mm | 1.34 m/s, 340° | - | - |
| 1777975055 | 13.89° C | 82% | 1009.1 hPa | 0 mm | 0 m/s | - | - |
| 1777973257 | 12.78° C | 91% | 1009.1 hPa | 0.25 mm | 0 m/s | - | - |
| 1777971456 | 11.67° C | 91% | 1009.2 hPa | 0.25 mm | 0 m/s | - | - |
| 1777969656 | 11.67° C | 90% | 1009.2 hPa | 0 mm | 1.34 m/s, 328° | - | - |
| 1777967855 | 12.22° C | 90% | 1009.2 hPa | 0 mm | 0 m/s | - | - |
| 1777966056 | 12.22° C | 94% | 1009.4 hPa | 0.25 mm | 0 m/s | - | - |
| 1777964256 | 11.67° C | 97% | 1009.4 hPa | 0.25 mm | 0 m/s | - | - |
| 1777962456 | 11.11° C | 98% | 1009.5 hPa | 0 mm | 0 m/s | - | - |
| 1777960655 | 10.56° C | 98% | 1009.6 hPa | 0 mm | 0 m/s | - | - |
| 1777958856 | 10.56° C | 98% | 1009.8 hPa | 0.25 mm | 0 m/s | - | - |
| 1777957056 | 10° C | 98% | 1009.6 hPa | 0.25 mm | 0 m/s | - | - |
| 1777955257 | 10° C | 98% | 1009.8 hPa | 0.25 mm | 0 m/s | - | - |
| 1777953456 | 10.56° C | 98% | 1010.2 hPa | 0.25 mm | 0 m/s | - | - |
| 1777951655 | 10.56° C | 97% | 1010.4 hPa | 0.76 mm | 0.45 m/s, 347° | - | - |
| 1777949855 | 10.56° C | 96% | 1010.7 hPa | 1.27 mm | 0 m/s | - | - |
| 1777948056 | 10.56° C | 96% | 1010.9 hPa | 1.02 mm | 1.34 m/s, 11° | - | - |
| 1777946256 | 10.56° C | 95% | 1010.8 hPa | 1.02 mm | 0 m/s | - | - |
| 1777944456 | 10.56° C | 94% | 1011.2 hPa | 1.02 mm | 0 m/s | - | - |
| 1777942656 | 10.56° C | 92% | 1011.3 hPa | 0.76 mm | 0 m/s | - | - |
* Rain latest hour (hover to see other rain measurements)
** Current wind speed in m/s (hover to see current wind gust speed)